createdAt,value
2022-12-06T00:01:29.155Z,97871.50
2022-12-06T00:04:02.150Z,97869.09
2022-12-06T00:06:35.384Z,97880.63
2022-12-06T00:09:06.763Z,97873.69
2022-12-06T00:11:39.335Z,97875.66
2022-12-06T00:14:10.768Z,97873.75
2022-12-06T00:16:44.313Z,97873.09
2022-12-06T00:19:18.261Z,97869.03
2022-12-06T00:21:48.948Z,97869.81
2022-12-06T00:24:22.309Z,97869.06
2022-12-06T00:26:53.912Z,97873.78
2022-12-06T00:29:27.054Z,97868.81
2022-12-06T00:32:00.026Z,97872.41
2022-12-06T00:34:30.737Z,97877.03
2022-12-06T00:37:01.133Z,97870.25
2022-12-06T00:39:31.573Z,97870.16
2022-12-06T00:42:01.944Z,97862.88
2022-12-06T00:44:32.250Z,97873.09
2022-12-06T00:47:05.169Z,97872.22
2022-12-06T00:49:35.547Z,97874.97
2022-12-06T00:52:05.975Z,97870.78
2022-12-06T00:54:36.413Z,97872.91
2022-12-06T00:57:06.896Z,97876.78
2022-12-06T00:59:37.237Z,97877.03
2022-12-06T01:02:10.142Z,97876.31
2022-12-06T01:04:40.825Z,97861.75
2022-12-06T01:07:11.148Z,97868.09
2022-12-06T01:09:42.599Z,97866.22
2022-12-06T01:12:12.939Z,97871.44
2022-12-06T01:14:43.228Z,97870.50
2022-12-06T01:17:16.376Z,97866.22
2022-12-06T01:19:46.829Z,97868.63
2022-12-06T01:22:17.132Z,97873.44
2022-12-06T01:24:47.369Z,97871.44
2022-12-06T01:27:17.781Z,97868.38
2022-12-06T01:29:48.207Z,97856.22
2022-12-06T01:32:21.179Z,97853.47
2022-12-06T01:34:52.857Z,97852.41
2022-12-06T01:37:23.164Z,97860.69
2022-12-06T01:39:53.466Z,97855.50
2022-12-06T01:42:23.725Z,97861.41
2022-12-06T01:44:56.037Z,97856.41
2022-12-06T01:47:31.930Z,97846.78
2022-12-06T01:50:07.213Z,97847.97
2022-12-06T01:52:46.941Z,97843.34
2022-12-06T01:55:18.489Z,97825.25
2022-12-06T01:57:49.729Z,97828.53
2022-12-06T02:00:20.714Z,97827.66
2022-12-06T02:02:54.027Z,97820.84
2022-12-06T02:05:24.471Z,97821.19
2022-12-06T02:07:56.142Z,97821.38
2022-12-06T02:10:26.816Z,97818.41
2022-12-06T02:13:00.927Z,97815.66
2022-12-06T02:15:40.205Z,97814.34
2022-12-06T02:18:23.156Z,97816.97
2022-12-06T02:21:02.319Z,97796.88
2022-12-06T02:24:01.378Z,97797.34
2022-12-06T02:26:41.064Z,97793.72
2022-12-06T02:30:03.214Z,97797.03
2022-12-06T02:32:40.021Z,97791.63
2022-12-06T02:35:17.170Z,97781.50
2022-12-06T02:37:52.584Z,97790.06
2022-12-06T02:40:28.061Z,97786.56
2022-12-06T02:43:03.752Z,97771.72
2022-12-06T02:45:41.638Z,97775.47
2022-12-06T02:48:16.155Z,97786.44
2022-12-06T02:50:54.965Z,97786.25
2022-12-06T02:53:27.568Z,97775.47
2022-12-06T02:55:58.766Z,97779.91
2022-12-06T02:58:29.174Z,97766.97
2022-12-06T03:01:03.157Z,97773.78
2022-12-06T03:04:04.347Z,97771.69
2022-12-06T03:06:51.916Z,97773.22
2022-12-06T03:09:38.828Z,97779.47
2022-12-06T03:12:16.853Z,97777.41
2022-12-06T03:14:57.457Z,97778.16
2022-12-06T03:17:39.064Z,97771.13
2022-12-06T03:20:19.321Z,97772.41
2022-12-06T03:22:55.518Z,97763.94
2022-12-06T03:25:26.504Z,97759.53
2022-12-06T03:27:59.194Z,97761.84
2022-12-06T03:30:30.865Z,97767.69
2022-12-06T03:33:02.275Z,97763.94
2022-12-06T03:35:37.440Z,97769.44
2022-12-06T03:38:13.399Z,97764.38
2022-12-06T03:40:48.499Z,97751.31
2022-12-06T03:43:18.859Z,97754.34
2022-12-06T03:45:57.905Z,97763.00
2022-12-06T03:48:34.084Z,97759.22
2022-12-06T03:51:10.971Z,97759.47
2022-12-06T03:53:50.512Z,97755.97
2022-12-06T03:56:21.073Z,97756.72
2022-12-06T03:58:51.478Z,97758.63
2022-12-06T04:01:22.058Z,97751.03
2022-12-06T04:03:52.998Z,97745.69
2022-12-06T04:06:25.997Z,97741.41
2022-12-06T04:09:16.371Z,97745.56
2022-12-06T04:11:46.728Z,97742.41
2022-12-06T04:14:17.054Z,97740.75
2022-12-06T04:16:59.697Z,97742.16
2022-12-06T04:19:30.000Z,97740.00
2022-12-06T04:22:15.267Z,97746.94
2022-12-06T04:24:45.524Z,97735.19
2022-12-06T04:27:33.569Z,97734.19
2022-12-06T04:30:16.206Z,97732.88
2022-12-06T04:32:58.903Z,97730.69
2022-12-06T04:35:41.510Z,97728.59
2022-12-06T04:38:26.735Z,97727.13
2022-12-06T04:40:56.969Z,97725.94
2022-12-06T04:43:39.644Z,97722.28
2022-12-06T04:46:10.163Z,97715.81
2022-12-06T04:48:40.710Z,97727.44
2022-12-06T04:51:13.227Z,97724.59
2022-12-06T04:53:46.361Z,97720.28
2022-12-06T04:56:16.667Z,97732.63
2022-12-06T04:58:47.819Z,97725.38
2022-12-06T05:01:18.008Z,97724.28
2022-12-06T05:03:48.583Z,97719.66
2022-12-06T05:06:19.030Z,97723.59
2022-12-06T05:08:51.900Z,97727.09
2022-12-06T05:11:22.218Z,97727.22
2022-12-06T05:13:52.624Z,97730.06
2022-12-06T05:16:22.968Z,97722.13
2022-12-06T05:18:53.368Z,97723.69
2022-12-06T05:21:27.691Z,97720.81
2022-12-06T05:24:00.702Z,97715.91
2022-12-06T05:26:32.459Z,97722.16
2022-12-06T05:29:02.876Z,97714.91
2022-12-06T05:31:33.194Z,97720.59
2022-12-06T05:34:03.634Z,97715.44
2022-12-06T05:36:33.983Z,97718.19
2022-12-06T05:39:07.233Z,97710.53
2022-12-06T05:41:37.732Z,97713.94
2022-12-06T05:44:08.418Z,97717.56
2022-12-06T05:46:38.723Z,97713.16
2022-12-06T05:49:08.991Z,97717.44
2022-12-06T05:51:39.301Z,97721.03
2022-12-06T05:54:12.275Z,97710.84
2022-12-06T05:56:42.810Z,97710.19
2022-12-06T05:59:13.182Z,97710.53
2022-12-06T06:01:43.495Z,97711.63
2022-12-06T06:04:13.845Z,97709.53
2022-12-06T06:06:44.144Z,97712.28
2022-12-06T06:09:17.037Z,97708.09
2022-12-06T06:11:47.318Z,97697.78
2022-12-06T06:14:17.721Z,97701.72
2022-12-06T06:16:48.238Z,97701.72
2022-12-06T06:19:18.692Z,97700.28
2022-12-06T06:21:49.347Z,97703.34
2022-12-06T06:24:23.855Z,97707.31
2022-12-06T06:26:54.281Z,97711.50
2022-12-06T06:29:25.340Z,97710.53
2022-12-06T06:31:55.666Z,97710.75
2022-12-06T06:34:26.084Z,97711.50
2022-12-06T06:36:56.586Z,97713.91
2022-12-06T06:39:29.581Z,97714.09
2022-12-06T06:41:59.865Z,97716.31
2022-12-06T06:44:30.127Z,97716.84
2022-12-06T06:47:00.513Z,97719.59
2022-12-06T06:49:30.887Z,97709.72
2022-12-06T06:52:01.175Z,97710.06
2022-12-06T06:54:34.076Z,97709.38
2022-12-06T06:57:04.907Z,97714.63
2022-12-06T06:59:35.420Z,97707.09
2022-12-06T07:02:05.774Z,97710.94
2022-12-06T07:04:36.367Z,97709.28
2022-12-06T07:07:06.902Z,97714.66
2022-12-06T07:09:40.179Z,97705.47
2022-12-06T07:12:10.564Z,97713.69
2022-12-06T07:14:40.881Z,97714.03
2022-12-06T07:17:11.302Z,97722.28
2022-12-06T07:19:41.685Z,97721.94
2022-12-06T07:22:12.378Z,97718.75
2022-12-06T07:24:50.758Z,97725.03
2022-12-06T07:27:23.771Z,97727.31
2022-12-06T07:29:54.149Z,97722.16
2022-12-06T07:32:24.516Z,97723.28
2022-12-06T07:34:55.054Z,97725.47
2022-12-06T07:37:25.373Z,97730.63
2022-12-06T07:39:58.608Z,97731.38
2022-12-06T07:42:41.581Z,97721.19
2022-12-06T07:45:15.005Z,97727.75
2022-12-06T07:47:47.455Z,97726.31
2022-12-06T07:50:21.064Z,97713.91
2022-12-06T07:52:53.107Z,97716.56
2022-12-06T07:55:26.052Z,97721.16
2022-12-06T07:57:56.345Z,97711.38
2022-12-06T08:00:26.894Z,97714.25
2022-12-06T08:02:57.257Z,97709.41
2022-12-06T08:05:27.891Z,97700.84
2022-12-06T08:07:58.306Z,97700.19
2022-12-06T08:10:31.306Z,97693.50
2022-12-06T08:13:04.102Z,97702.50
2022-12-06T08:15:34.403Z,97706.56
2022-12-06T08:18:04.731Z,97704.13
2022-12-06T08:20:35.189Z,97713.34
2022-12-06T08:23:05.504Z,97704.03
2022-12-06T08:25:38.383Z,97710.28
2022-12-06T08:28:08.839Z,97706.88
2022-12-06T08:30:42.756Z,97711.94
2022-12-06T08:33:13.125Z,97711.69
2022-12-06T08:35:43.393Z,97711.34
2022-12-06T08:38:13.656Z,97710.28
2022-12-06T08:40:46.740Z,97709.06
2022-12-06T08:43:17.071Z,97714.22
2022-12-06T08:45:47.355Z,97716.06
2022-12-06T08:48:17.570Z,97712.25
2022-12-06T08:50:47.898Z,97714.97
2022-12-06T08:53:18.217Z,97710.69
2022-12-06T08:56:02.795Z,97715.84
2022-12-06T08:58:33.812Z,97716.06
2022-12-06T09:01:04.277Z,97716.56
2022-12-06T09:03:34.628Z,97711.78
2022-12-06T09:06:05.313Z,97723.59
2022-12-06T09:08:35.676Z,97715.72
2022-12-06T09:11:10.344Z,97723.06
2022-12-06T09:13:41.836Z,97718.13
2022-12-06T09:16:15.896Z,97720.66
2022-12-06T09:18:46.934Z,97716.84
2022-12-06T09:21:19.903Z,97720.84
2022-12-06T09:23:50.476Z,97721.31
2022-12-06T09:26:23.397Z,97717.25
2022-12-06T09:28:54.971Z,97718.81
2022-12-06T09:31:25.866Z,97719.22
2022-12-06T09:33:56.260Z,97714.84
2022-12-06T09:36:29.591Z,97720.53
2022-12-06T09:39:05.124Z,97708.78
2022-12-06T09:42:14.654Z,97710.63
2022-12-06T09:45:28.253Z,97705.25
2022-12-06T09:48:29.935Z,97713.69
2022-12-06T09:51:15.553Z,97705.72
2022-12-06T09:54:07.624Z,97716.69
2022-12-06T09:56:47.913Z,97705.59
2022-12-06T09:59:24.790Z,97706.13
2022-12-06T10:02:22.691Z,97697.06
2022-12-06T10:05:20.445Z,97694.63
2022-12-06T10:08:05.006Z,97685.31
2022-12-06T10:10:53.548Z,97685.16
2022-12-06T10:13:46.321Z,97683.53
2022-12-06T10:16:30.709Z,97674.88
2022-12-06T10:19:19.927Z,97668.50
2022-12-06T10:22:08.112Z,97670.25
2022-12-06T10:24:59.163Z,97674.88
2022-12-06T10:27:38.486Z,97670.78
2022-12-06T10:30:14.643Z,97664.09
2022-12-06T10:32:54.943Z,97666.84
2022-12-06T10:35:53.597Z,97661.47
2022-12-06T10:38:31.435Z,97668.59
2022-12-06T10:41:14.025Z,97674.66
2022-12-06T10:43:55.161Z,97671.72
2022-12-06T10:46:49.626Z,97665.69
2022-12-06T10:49:28.205Z,97669.94
2022-12-06T10:52:07.126Z,97664.97
2022-12-06T10:54:46.234Z,97670.84
2022-12-06T10:57:22.251Z,97665.38
2022-12-06T11:00:03.880Z,97663.22
2022-12-06T11:02:43.450Z,97659.94
2022-12-06T11:05:25.048Z,97659.59
2022-12-06T11:08:05.674Z,97655.84
2022-12-06T11:10:37.981Z,97652.56
2022-12-06T11:13:22.123Z,97656.25
2022-12-06T11:15:56.814Z,97654.50
2022-12-06T11:18:32.676Z,97659.22
2022-12-06T11:21:07.877Z,97651.91
2022-12-06T11:23:48.462Z,97647.63
2022-12-06T11:26:30.952Z,97653.75
2022-12-06T11:29:07.236Z,97643.78
2022-12-06T11:31:41.285Z,97650.34
2022-12-06T11:34:21.077Z,97647.72
2022-12-06T11:36:59.854Z,97644.63
2022-12-06T11:39:31.884Z,97647.28
2022-12-06T11:42:07.663Z,97644.78
2022-12-06T11:44:49.729Z,97644.28
2022-12-06T11:47:24.866Z,97648.53
2022-12-06T11:50:06.114Z,97645.06
2022-12-06T11:52:45.833Z,97646.63
2022-12-06T11:55:22.336Z,97640.38
2022-12-06T11:57:59.372Z,97628.22
2022-12-06T12:00:31.270Z,97632.91
2022-12-06T12:03:02.199Z,97631.72
2022-12-06T12:05:38.941Z,97629.09
2022-12-06T12:08:19.662Z,97626.06
2022-12-06T12:11:04.503Z,97616.38
2022-12-06T12:13:48.676Z,97624.97
2022-12-06T12:16:23.144Z,97619.81
2022-12-06T12:18:59.119Z,97612.44
2022-12-06T12:21:41.904Z,97614.09
2022-12-06T12:25:17.960Z,97609.69
2022-12-06T12:27:51.731Z,97610.50
2022-12-06T12:30:35.572Z,97609.56
2022-12-06T12:33:23.996Z,97610.22
2022-12-06T12:36:12.976Z,97606.63
2022-12-06T12:38:54.038Z,97602.16
2022-12-06T12:41:32.431Z,97605.22
2022-12-06T12:44:36.047Z,97605.66
2022-12-06T12:46:59.992Z,97599.31
2022-12-06T12:49:35.495Z,97597.22
2022-12-06T12:52:29.465Z,97600.13
2022-12-06T12:55:19.536Z,97593.34
2022-12-06T12:57:52.547Z,97594.56
2022-12-06T13:00:27.723Z,97593.72
2022-12-06T13:03:02.758Z,97594.19
2022-12-06T13:05:39.620Z,97596.03
2022-12-06T13:08:23.191Z,97593.41
2022-12-06T13:10:59.657Z,97600.03
2022-12-06T13:13:35.534Z,97597.66
2022-12-06T13:16:10.513Z,97592.34
2022-12-06T13:18:45.590Z,97592.47
2022-12-06T13:21:24.301Z,97599.94
2022-12-06T13:24:02.838Z,97595.31
2022-12-06T13:26:41.076Z,97601.78
2022-12-06T13:29:27.901Z,97598.97
2022-12-06T13:32:01.936Z,97596.03
2022-12-06T13:34:38.264Z,97592.97
2022-12-06T13:37:31.423Z,97593.41
2022-12-06T13:40:02.073Z,97599.06
2022-12-06T13:42:49.349Z,97595.81
2022-12-06T13:45:43.884Z,97593.06
2022-12-06T13:48:40.496Z,97596.94
2022-12-06T13:51:15.931Z,97600.03
2022-12-06T13:54:43.027Z,97595.50
2022-12-06T13:57:31.883Z,97590.31
2022-12-06T14:00:04.991Z,97595.69
2022-12-06T14:02:48.470Z,97593.41
2022-12-06T14:06:14.884Z,97597.22
2022-12-06T14:08:48.282Z,97590.84
2022-12-06T14:11:24.062Z,97594.00
2022-12-06T14:14:08.897Z,97595.97
2022-12-06T14:16:46.426Z,97596.63
2022-12-06T14:19:21.415Z,97596.72
2022-12-06T14:21:58.839Z,97594.34
2022-12-06T14:24:33.120Z,97598.53
2022-12-06T14:27:10.181Z,97597.47
2022-12-06T14:29:40.668Z,97591.75
2022-12-06T14:32:14.046Z,97594.75
2022-12-06T14:34:44.365Z,97598.72
2022-12-06T14:37:24.798Z,97591.44
2022-12-06T14:39:56.349Z,97598.63
2022-12-06T14:42:39.018Z,97607.19
2022-12-06T14:45:16.993Z,97596.91
2022-12-06T14:47:50.269Z,97598.63
2022-12-06T14:50:32.264Z,97597.56
2022-12-06T14:53:06.788Z,97597.16
2022-12-06T14:55:38.902Z,97594.09
2022-12-06T14:58:20.173Z,97593.75
2022-12-06T15:00:59.249Z,97602.81
2022-12-06T15:03:34.947Z,97599.75
2022-12-06T15:06:22.121Z,97600.25
2022-12-06T15:08:55.589Z,97602.81
2022-12-06T15:11:48.184Z,97606.06
2022-12-06T15:14:22.196Z,97608.78
2022-12-06T15:17:03.031Z,97605.03
2022-12-06T15:19:38.082Z,97603.53
2022-12-06T15:22:24.846Z,97598.03
2022-12-06T15:24:57.830Z,97595.88
2022-12-06T15:27:29.043Z,97599.38
2022-12-06T15:29:59.820Z,97600.25
2022-12-06T15:32:30.435Z,97595.13
2022-12-06T15:35:03.327Z,97603.66
2022-12-06T15:37:43.875Z,97598.34
2022-12-06T15:40:18.517Z,97597.69
2022-12-06T15:42:48.843Z,97596.06
2022-12-06T15:45:19.179Z,97597.69
2022-12-06T15:47:51.783Z,97601.19
2022-12-06T15:50:24.667Z,97597.94
2022-12-06T15:52:56.841Z,97606.81
2022-12-06T15:55:27.161Z,97606.81
2022-12-06T15:57:57.440Z,97605.28
2022-12-06T16:00:27.968Z,97607.00
2022-12-06T16:02:58.448Z,97607.19
2022-12-06T16:05:31.671Z,97611.22
2022-12-06T16:08:02.073Z,97604.97
2022-12-06T16:11:09.667Z,97615.41
2022-12-06T16:13:26.552Z,97612.16
2022-12-06T16:15:57.185Z,97610.34
2022-12-06T16:18:27.642Z,97617.34
2022-12-06T16:21:01.276Z,97615.22
2022-12-06T16:26:41.800Z,97614.03
2022-12-06T16:29:17.086Z,97605.66
2022-12-06T16:31:47.854Z,97620.00
2022-12-06T16:34:18.776Z,97620.00
2022-12-06T16:37:02.732Z,97617.53
2022-12-06T16:39:35.994Z,97616.50
2022-12-06T16:42:08.135Z,97612.81
2022-12-06T16:44:57.576Z,97608.97
2022-12-06T16:49:56.916Z,97615.38
2022-12-06T16:52:29.825Z,97615.81
2022-12-06T16:55:00.461Z,97614.78
2022-12-06T16:57:31.070Z,97617.19
2022-12-06T17:00:01.602Z,97605.22
2022-12-06T17:02:34.066Z,97610.19
2022-12-06T17:05:07.029Z,97603.41
2022-12-06T17:07:41.155Z,97611.13
2022-12-06T17:10:12.650Z,97614.28
2022-12-06T17:12:43.159Z,97609.66
2022-12-06T17:15:16.471Z,97612.91
2022-12-06T17:17:46.892Z,97606.75
2022-12-06T17:20:19.934Z,97605.91
2022-12-06T17:22:52.787Z,97617.34
2022-12-06T17:25:23.251Z,97611.53
2022-12-06T17:27:53.658Z,97616.44
2022-12-06T17:30:24.204Z,97617.63
2022-12-06T17:32:54.537Z,97622.84
2022-12-06T17:35:25.094Z,97620.94
2022-12-06T17:37:58.031Z,97614.97
2022-12-06T17:40:28.299Z,97614.28
2022-12-06T17:43:01.787Z,97617.38
2022-12-06T17:45:32.327Z,97619.34
2022-12-06T17:48:02.706Z,97627.88
2022-12-06T17:50:33.009Z,97614.03
2022-12-06T17:53:05.913Z,97612.41
2022-12-06T17:55:36.205Z,97619.06
2022-12-06T17:58:06.533Z,97615.47
2022-12-06T18:00:37.072Z,97616.19
2022-12-06T18:03:07.490Z,97613.59
2022-12-06T18:05:39.477Z,97613.25
2022-12-06T18:08:12.446Z,97608.47
2022-12-06T18:10:42.719Z,97611.97
2022-12-06T18:13:12.943Z,97616.34
2022-12-06T18:15:43.863Z,97615.41
2022-12-06T18:18:14.184Z,97613.09
2022-12-06T18:20:44.906Z,97611.44
2022-12-06T18:23:18.040Z,97623.94
2022-12-06T18:25:49.246Z,97622.38
2022-12-06T18:28:19.601Z,97623.09
2022-12-06T18:30:49.851Z,97622.56
2022-12-06T18:33:22.599Z,97616.91
2022-12-06T18:35:57.790Z,97624.03
2022-12-06T18:38:31.094Z,97627.97
2022-12-06T18:41:06.619Z,97620.88
2022-12-06T18:43:37.551Z,97622.50
2022-12-06T18:46:12.043Z,97621.13
2022-12-06T18:48:44.842Z,97620.25
2022-12-06T18:51:18.341Z,97626.78
2022-12-06T18:53:52.839Z,97625.06
2022-12-06T18:56:25.091Z,97628.41
2022-12-06T18:58:55.877Z,97620.25
2022-12-06T19:01:29.252Z,97626.94
2022-12-06T19:04:03.389Z,97625.06
2022-12-06T19:06:36.140Z,97636.53
2022-12-06T19:09:12.311Z,97626.59
2022-12-06T19:11:45.895Z,97623.66
2022-12-06T19:14:17.281Z,97629.59
2022-12-06T19:16:48.783Z,97635.75
2022-12-06T19:19:22.269Z,97629.34
2022-12-06T19:21:54.652Z,97633.94
2022-12-06T19:24:29.432Z,97635.41
2022-12-06T19:27:01.089Z,97644.06
2022-12-06T19:29:32.420Z,97638.66
2022-12-06T19:32:02.557Z,97637.03
2022-12-06T19:34:32.845Z,97632.91
2022-12-06T19:37:03.258Z,97639.94
2022-12-06T19:39:36.263Z,97636.09
2022-12-06T19:42:19.235Z,97637.63
2022-12-06T19:44:49.509Z,97639.25
2022-12-06T19:47:20.280Z,97632.91
2022-12-06T19:49:50.642Z,97635.16
2022-12-06T19:52:20.956Z,97634.13
2022-12-06T19:54:54.309Z,97631.88
2022-12-06T19:57:24.612Z,97639.25
2022-12-06T19:59:56.603Z,97640.19
2022-12-06T20:02:26.911Z,97637.97
2022-12-06T20:04:57.228Z,97642.91
2022-12-06T20:07:27.503Z,97645.59
2022-12-06T20:10:00.675Z,97645.34
2022-12-06T20:12:31.146Z,97638.38
2022-12-06T20:15:01.597Z,97634.47
2022-12-06T20:17:31.951Z,97640.09
2022-12-06T20:20:02.768Z,97639.25
2022-12-06T20:22:33.351Z,97635.31
2022-12-06T20:25:06.723Z,97631.81
2022-12-06T20:27:49.335Z,97627.94
2022-12-06T20:30:20.073Z,97632.50
2022-12-06T20:32:50.665Z,97626.19
2022-12-06T20:35:21.291Z,97627.44
2022-12-06T20:37:53.661Z,97626.75
2022-12-06T20:40:31.221Z,97633.63
2022-12-06T20:43:02.043Z,97625.06
2022-12-06T20:45:32.401Z,97623.59
2022-12-06T20:48:02.660Z,97628.97
2022-12-06T20:50:32.947Z,97618.38
2022-12-06T20:53:03.590Z,97627.69
2022-12-06T20:55:36.839Z,97619.47
2022-12-06T20:58:07.157Z,97616.41
2022-12-06T21:00:37.430Z,97616.41
2022-12-06T21:03:07.825Z,97612.38
2022-12-06T21:05:39.492Z,97621.13
2022-12-06T21:08:12.485Z,97612.66
2022-12-06T21:11:14.367Z,97612.56
2022-12-06T21:13:36.827Z,97614.28
2022-12-06T21:16:10.552Z,97616.69
2022-12-06T21:18:40.859Z,97615.47
2022-12-06T21:21:11.550Z,97615.53
2022-12-06T21:23:42.312Z,97619.22
2022-12-06T21:26:15.403Z,97618.91
2022-12-06T21:28:46.037Z,97622.31
2022-12-06T21:31:16.505Z,97620.94
2022-12-06T21:33:46.819Z,97625.91
2022-12-06T21:36:17.146Z,97624.13
2022-12-06T21:38:47.456Z,97629.66
2022-12-06T21:41:20.372Z,97619.22
2022-12-06T21:43:50.742Z,97624.38
2022-12-06T21:46:23.146Z,97626.69
2022-12-06T21:48:55.404Z,97620.78
2022-12-06T21:51:26.847Z,97632.91
2022-12-06T21:53:57.657Z,97625.06
2022-12-06T21:56:34.168Z,97626.41
2022-12-06T21:59:04.826Z,97623.25
2022-12-06T22:01:35.294Z,97630.28
2022-12-06T22:04:06.530Z,97625.75
2022-12-06T22:06:38.625Z,97624.03
2022-12-06T22:09:09.442Z,97615.16
2022-12-06T22:11:43.086Z,97620.09
2022-12-06T22:14:14.039Z,97617.38
2022-12-06T22:16:44.388Z,97619.34
2022-12-06T22:19:14.678Z,97615.41
2022-12-06T22:21:44.935Z,97613.44
2022-12-06T22:24:15.231Z,97603.59
2022-12-06T22:26:48.172Z,97606.75
2022-12-06T22:29:18.851Z,97608.38
2022-12-06T22:31:49.269Z,97605.22
2022-12-06T22:34:19.602Z,97605.97
2022-12-06T22:36:50.088Z,97607.53
2022-12-06T22:39:21.327Z,97609.47
2022-12-06T22:41:54.020Z,97606.75
2022-12-06T22:44:24.328Z,97601.63
2022-12-06T22:46:54.792Z,97599.75
2022-12-06T22:49:25.429Z,97604.47
2022-12-06T22:51:55.862Z,97600.59
2022-12-06T22:54:27.919Z,97603.75
2022-12-06T22:57:01.942Z,97607.69
2022-12-06T22:59:32.270Z,97605.22
2022-12-06T23:02:02.599Z,97608.22
2022-12-06T23:04:33.065Z,97598.03
2022-12-06T23:07:03.394Z,97603.53
2022-12-06T23:09:35.112Z,97601.28
2022-12-06T23:12:09.159Z,97603.53
2022-12-06T23:14:42.942Z,97609.66
2022-12-06T23:17:13.353Z,97601.09
2022-12-06T23:19:43.636Z,97596.50
2022-12-06T23:22:14.007Z,97597.75
2022-12-06T23:24:44.312Z,97602.56
2022-12-06T23:27:17.179Z,97603.31
2022-12-06T23:29:47.842Z,97601.78
2022-12-06T23:32:19.515Z,97604.88
2022-12-06T23:34:49.790Z,97604.78
2022-12-06T23:37:20.105Z,97610.84
2022-12-06T23:39:50.364Z,97603.16
2022-12-06T23:42:23.256Z,97607.25
2022-12-06T23:44:53.518Z,97603.56
2022-12-06T23:47:23.818Z,97597.78
2022-12-06T23:49:54.090Z,97589.75
2022-12-06T23:52:24.429Z,97586.38
2022-12-06T23:54:54.991Z,97589.22
2022-12-06T23:57:27.954Z,97587.16
2022-12-06T23:59:58.486Z,97589.06
